Tropical Cyclones
[Index]
Main Index Home Page Stock Weather Photos Extreme Storms Discussion Storm News and Storm Chasing Reports Tropical Cyclones / Hurricanes / Typhoons Weather Data and Links Wild Fires / Bushfires Weather Observation Techniques Weather Picture Catalogue Tornado Pictures and Reports Stock Video Footage and DVDs for sale
Season 1979-1980 Tropical Cyclone 198022 Track Map
Season 1979-1980 Summaries: [BoM-AU] [JTWC-AU] [JTWC-SIO] [JTWC-SPAC] [JTWC-SH]
<<- Previous TC | JTWC 1979-1980 Season | Next TC ->>

click for intensity scale information  Lat/long Grid: Show Hide

 Date Labels: Show Hide

Joint Typhoon Warning Centre Cyclone Data

Name: 198022

14 Mar 1980 12:00 UTC to 20 Mar 1980 00:00 UTC

    date/time    lat    long     hPa   cat  kts
1980-03-14 12   10.8    71.5                  25          
1980-03-14 18   10.2    69.7                  25          
1980-03-15 00   10.2    68.5                  30          
1980-03-15 06   11.1    67.8                  30          
1980-03-15 12   12.0    67.1                  35          
1980-03-15 18   12.4    66.1                  35          
1980-03-16 00   12.6    65.2                  35          
1980-03-16 06   12.6    64.9            1     40          
1980-03-16 12   12.5    64.8            1     40          
1980-03-16 18   11.6    64.5            1     40          
1980-03-17 00   11.0    64.0                  35          
1980-03-17 06   11.5    63.2                  35          
1980-03-17 12   12.0    62.0                  35          
1980-03-17 18   12.5    60.4                  35          
1980-03-18 00   13.0    58.8                  35          
1980-03-18 06   13.3    57.8                  35          
1980-03-18 12   13.5    56.8            1     40          
1980-03-18 18   13.6    55.6            1     40          
1980-03-19 00   13.8    54.5            1     40          
1980-03-19 06   14.0    53.5            1     40          
1980-03-19 12   14.3    52.5            1     40          
1980-03-19 18   14.6    51.3                  35          
1980-03-20 00   15.0    50.0                  35          
Winds are 1-min average.

Tropical cyclone tracks developed by Michael Bath using data from the Joint Typhoon Warning Centre Best Tracks and Google Maps.


[Australian Severe Weather index] [Copyright Notice] [Email Contacts] [Search This Site] [Privacy Policy]
Document: tropical_cyclone_198022.htm Updated: 18 September 2016